Terminal Aerodrome Forecast
Issued by NWS Shreveport, LA

Home | Current Version | Previous Version | Text Only | Print | Product List | Glossary On
Versions: 1 2 3 4 5 6 7 8 9 10 11 12 13 14 15 16 17 18
000
FTUS44 KSHV 220500 RRA
TAFELD
TAF
KELD 220541Z 2206/2306 36004KT P6SM SCT080 BKN100
     FM220800 01005KT P6SM SCT100
     FM221200 03005KT P6SM SKC
     FM221500 04009KT P6SM SKC
     FM230100 04003KT P6SM SKC=

USA.gov is the U.S. government's official web portal to all federal, state and local government web resources and services.